那覇空港の過去48時間の天気

那覇空港 (Naha)

現在時刻: 6/19 15:04 JST (6/19 06:04 UTC) 以下の時間は現地時間です。

過去48時間のMETAR気象情報
時間 風向 風速(m/s) 視程 気温(℃) 湿度(%) 気圧(hPa) 天気現象
19 14:30 南西 7 10km以上 29 84 1006
19 14:00 南西 7 10km以上 29 84 1006
19 13:30 南西 7 10km以上 29 84 1007
19 13:00 南西 7 10km以上 29 84 1007
19 12:30 南西 7 10km以上 28 89 1007
19 12:00 南西 7 10km以上 28 89 1007
19 11:30 南西 7 10km以上 29 84 1008
19 11:00 南西 6 10km以上 29 84 1007
19 10:30 南西 7 10km以上 28 89 1007
19 10:00 南西 7 10km以上 28 89 1007
19 09:30 南西 7 10km以上 28 89 1007 弱いしゅう雨
19 09:00 南南西 7 10km以上 28 89 1007 弱いしゅう雨
19 08:30 南西 7 10km以上 28 89 1007 弱いしゅう雨
19 08:00 南南西 7 10km以上 27 94 1007
19 07:30 南西 7 10km以上 27 94 1007
19 07:00 南西 6 10km以上 27 94 1007
19 06:30 南南西 7 10km以上 27 94 1007 周辺でしゅう雨
19 06:00 南南西 7 10km以上 27 94 1007 周辺でしゅう雨
19 05:30 南南西 7 10km以上 27 94 1007 周辺でしゅう雨
19 05:00 南南西 7 10km以上 27 94 1007
19 04:30 南南西 8 10km以上 27 94 1007
19 04:00 南南西 7 10km以上 27 94 1007
19 03:30 南南西 7 10km以上 27 94 1008
19 03:00 南南西 7 10km以上 27 94 1008 周辺でしゅう雨
19 02:30 南南西 7 10km以上 27 94 1008 周辺でしゅう雨
19 02:00 南南西 6 10km以上 27 94 1008 周辺でしゅう雨
19 01:43 南南西 6 10km以上 27 94 1008 周辺でしゅう雨
19 01:30 南南西 6 10km以上 27 94 1008 周辺でしゅう雨
19 01:00 南南西 6 10km以上 27 94 1009 周辺でしゅう雨
19 00:30 南南西 6 10km以上 27 94 1009 周辺でしゅう雨
19 00:00 南南西 6 10km以上 27 94 1009 周辺でしゅう雨
18 23:30 南南西 6 10km以上 27 94 1010
18 23:00 南南西 5 10km以上 27 94 1010
18 22:30 南南西 5 10km以上 27 94 1010
18 22:00 南南西 4 10km以上 27 94 1010 周辺でしゅう雨
18 20:30 2 10km以上 27 89 1010 周辺でしゅう雨
18 20:00 2 10km以上 27 89 1010 周辺でしゅう雨
18 19:30 南南西 2 10km以上 26 94 1010
18 17:30 北西 3 10km以上 25 100 1009 弱いしゅう雨
18 17:08 西北西 5 6000m 25 94 1009 雷雨
18 17:00 西北西 6 3500m 25 94 1009 雷雨
18 16:47 西北西 6 1000m 25 94 1009 強い雷雨
18 16:30 北西 8 800m 25 94 1009 強い雷雨
18 16:09 北西 8 2000m 26 89 1009 強い雷雨
18 16:00 北西 7 2000m 25 94 1009 強い雷雨
18 15:37 西 3 1000m 27 89 1010 強い雷雨
18 15:30 西 3 10km以上 27 94 1009 強い雷雨
18 15:21 西 3 10km以上 27 94 1009 雷雨
18 15:00 西 3 10km以上 28 89 1009 弱いしゅう雨
18 14:30 西 4 10km以上 28 89 1009
18 14:00 西 4 10km以上 27 94 1009 周辺でしゅう雨
18 13:41 西 4 10km以上 27 94 1009 弱いしゅう雨
18 13:30 西 4 10km以上 27 94 1009 しゅう雨
18 13:24 西北西 5 10km以上 27 94 1009 強いしゅう雨
18 13:00 西 3 1000m 27 94 1010 強いしゅう雨
18 12:37 西南西 3 10km以上 28 94 1010 強いしゅう雨
18 12:30 西南西 3 10km以上 28 94 1010 弱いしゅう雨
18 12:19 西南西 4 10km以上 28 94 1010 弱いしゅう雨
18 12:08 西南西 4 3000m 28 94 1010 強いしゅう雨
18 12:00 南西 3 10km以上 28 94 1010 弱いしゅう雨
18 11:37 西 4 10km以上 28 89 1010 弱いしゅう雨
18 11:15 西 3 10km以上 27 89 1010 強いしゅう雨
18 11:10 西 3 10km以上 27 89 1010 強いしゅう雨
18 11:00 西 3 3000m 27 94 1010 強いしゅう雨
18 10:50 南西 2 4000m 27 94 1010 強いしゅう雨
18 10:30 南西 4 10km以上 28 89 1010 弱いしゅう雨
18 10:00 南南西 4 10km以上 28 89 1011
18 09:30 南南西 5 10km以上 28 89 1011
18 09:00 南南西 5 10km以上 28 89 1011
18 08:30 南南西 5 10km以上 27 94 1011
18 08:00 南南西 4 10km以上 27 94 1010
18 07:30 5 10km以上 27 94 1010 周辺でしゅう雨
18 07:00 5 10km以上 27 94 1010 弱いしゅう雨
18 06:30 6 10km以上 26 94 1010 弱いしゅう雨
18 06:00 5 10km以上 26 94 1010 弱いしゅう雨
18 05:39 南南西 5 10km以上 26 94 1010 しゅう雨
17 22:00 3 10km以上 21 94 1013 弱いしゅう雨
17 21:30 3 10km以上 21 88 1013 弱いしゅう雨
17 21:00 4 10km以上 21 88 1013 周辺でしゅう雨
17 20:48 4 10km以上 20 94 1013 弱いしゅう雨
17 20:30 4 5000m 20 94 1012 しゅう雨
17 20:10 東南東 3 6000m 21 88 1012 しゅう雨
17 20:00 2 4000m 21 88 1012 しゅう雨
17 19:00 3 10km以上 21 88 1012 周辺でしゅう雨
17 18:30 4 10km以上 21 88 1012 周辺でしゅう雨
17 18:00 4 10km以上 21 88 1012 弱い雨
17 17:30 3 10km以上 21 88 1012 弱い雨
17 17:00 4 10km以上 20 94 1012 弱いしゅう雨
17 16:30 東南東 3 8000m 20 94 1013 弱いしゅう雨
17 16:19 東南東 3 6000m 20 88 1013 しゅう雨
17 16:00 東南東 3 10km以上 21 88 1013 弱いしゅう雨
17 15:46 3 7000m 21 88 1013 弱いしゅう雨
17 15:30 3 5000m 21 83 1013 しゅう雨
17 15:20 4 6000m 20 88 1013 しゅう雨
ROAH 190530Z 23013KT 9999 FEW012 SCT100 BKN160 29/26 Q1006 RMK 2CU012 3AC100 7AC160 A2972
ROAH 190500Z 23014KT 9999 FEW012 SCT100 BKN190 29/26 Q1006 RMK 2CU012 3AC100 7AC190 A2973
ROAH 190430Z 23013KT 9999 SCT012 BKN150 29/26 Q1007 RMK 3CU012 6AC150 A2974
ROAH 190400Z 22014KT 9999 SCT011 BKN150 29/26 Q1007 RMK 4CU011 7AC150 A2974
ROAH 190330Z 23014KT 9999 FEW011 BKN013 BKN150 28/26 Q1007 RMK 2CU011 5CU013 7AC150 A2975
ROAH 190300Z 23014KT 9999 SCT011 SCT017 BKN080 28/26 Q1007 RMK 3CU011 4CU017 7AC080 A2976
ROAH 190230Z 23014KT 9999 SCT010 BKN080 29/26 Q1008 RMK 3CU010 7AC080 A2977
ROAH 190200Z 22012KT 9999 SCT010 SCT017 BKN080 29/26 Q1007 RMK 3CU010 4CU017 7AC080 A2976
ROAH 190130Z 23013KT 9999 FEW010 SCT013 BKN080 28/26 Q1007 RMK 2CU010 3CU013 7AC080 A2976
ROAH 190100Z 23014KT 9999 FEW010 SCT012 BKN080 28/26 Q1007 RMK 2CU010 3CU012 7AC080 A2976
ROAH 190030Z 23013KT 9999 -SHRA BKN010 BKN080 28/26 Q1007 RMK 5CU010 7AC080 A2976
ROAH 190000Z 21014KT 9999 -SHRA SCT015 BKN100 28/26 Q1007 RMK 4CU015 7AC100 A2976
ROAH 182330Z 22014KT 9999 -SHRA SCT010 BKN140 28/26 Q1007 RMK 3CU010 7AC140 A2976
ROAH 182300Z 21014KT 9999 SCT010 BKN140 27/26 Q1007 RMK 3CU010 7AC140 A2976
ROAH 182230Z 22013KT 9999 FEW008 SCT015 BKN140 27/26 Q1007 RMK 1ST008 3CU015 7AC140 A2976
ROAH 182200Z 22012KT 9999 FEW008 BKN010 27/26 Q1007 RMK 1ST008 7CU010 A2976
ROAH 182130Z 21013KT 9999 VCSH FEW008 BKN010 27/26 Q1007 RMK 1ST008 6CU010 A2976
ROAH 182100Z 21013KT 9999 VCSH FEW008 BKN015 27/26 Q1007 RMK 1ST008 7CU015 A2975
ROAH 182030Z 21014KT 9999 VCSH FEW008 BKN010 27/26 Q1007 RMK 1ST008 7CU010 A2975
ROAH 182000Z 21014KT 9999 FEW006 BKN008 BKN140 27/26 Q1007 RMK 1ST006 6ST008 7AC140 A2976
ROAH 181930Z 21015KT 9999 FEW006 BKN008 BKN100 27/26 Q1007 RMK 1ST006 6ST008 7AC100 A2976
ROAH 181900Z 21013KT 170V240 9999 FEW006 BKN008 BKN140 27/26 Q1007 RMK 1ST006 6ST008 7AC140 A2976
ROAH 181830Z 21014KT 9999 FEW006 BKN008 BKN140 27/26 Q1008 RMK 1ST006 6ST008 7AC140 A2977
ROAH 181800Z 21013KT 9999 VCSH FEW006 SCT009 BKN140 27/26 Q1008 RMK 1ST006 4CU009 7AC140 A2977
ROAH 181730Z 21013KT 9999 VCSH FEW008 SCT010 BKN150 27/26 Q1008 RMK 1ST008 3CU010 7AC150 A2977
ROAH 181700Z 21011KT 9999 VCSH FEW008 SCT010 BKN080 27/26 Q1008 RMK 1ST008 3CU010 7AC080 A2977
ROAH 181643Z 21011KT 9999 VCSH FEW005 BKN007 BKN090 27/26 Q1008 RMK 1ST005 5ST007 7AC090 A2978
ROAH 181630Z 21011KT 9999 VCSH FEW006 SCT010 BKN090 27/26 Q1008 RMK 1ST006 3CU010 7AC090 A2979
ROAH 181600Z 21011KT 9999 VCSH FEW007 SCT010 BKN080 27/26 Q1009 RMK 1ST007 3CU010 7AC080 A2980
ROAH 181530Z 21011KT 9999 VCSH FEW006 SCT030 BKN100 27/26 Q1009 RMK 1ST006 3CU030 7AC100 A2981
ROAH 181500Z 21012KT 9999 VCSH FEW008 SCT010 BKN090 27/26 Q1009 RMK 1ST008 3CU010 7AC090 A2982
ROAH 181430Z 21011KT 9999 FEW005 BKN007 BKN090 27/26 Q1010 RMK 1ST005 5ST007 6AC090 A2983
ROAH 181400Z 21009KT 9999 FEW007 BKN010 BKN070 27/26 Q1010 RMK 1ST007 5CU010 6AC070 A2984
ROAH 181330Z 20009KT 9999 FEW005 SCT010 BKN070 27/26 Q1010 RMK 2ST005 4CU010 6AC070 A2984
ROAH 181300Z 20007KT 9999 VCSH SCT007 BKN012 BKN070 27/26 Q1010 RMK 4ST007 5CU012 7AC070 A2983
ROAH 181130Z 18004KT 9999 VCSH SCT010 SCT060 BKN090 27/25 Q1010 RMK 3CU010 4SC060 6AC090 A2984
ROAH 181100Z 19003KT 110V240 9999 VCSH FEW010 SCT060 BKN090 27/25 Q1010 RMK 2CU010 3SC060 6AC090 A2983
ROAH 181030Z 21004KT 190V250 9999 FEW020 SCT060 BKN090 26/25 Q1010 RMK 1CU020 3SC060 7AC090 A2983
ROAH 180830Z 32005KT 9999 -SHRA FEW015 SCT020 BKN040 25/25 Q1009 RMK 1CU015 3CU020 5SC040 A2982 MOD TURB OBS AT 0804Z GRASE 2000FT B738
ROAH 180808Z 30010KT 6000 TSRA FEW010 SCT015 FEW020CB BKN030 25/24 Q1009 RMK 1CU010 3CU015 2CB020 5CU030 A2982 FBL TS 10KM S MOV E
ROAH 180800Z 30011KT 3500 TSRA FEW010 SCT015 SCT020CB BKN030 25/24 Q1009 RMK 1CU010 3CU015 3CB020 5CU030 A2981 FBL TS OHD MOV E
ROAH 180747Z 30011KT 1000 R36/1500VP1800N +TSRA FEW008 BKN010 SCT025CB BKN030 25/24 Q1009 RMK 2ST008 5CU010 3CB025 7CU030 A2982 MOD TS OHD MOV E RI++
ROAH 180730Z 32016KT 0800 R36/1200VP1800D +TSRA FEW004 BKN008 SCT025CB 25/24 Q1009 RMK 2ST004 5ST008 3CB025 A2981 FBL TS OHD MOV E RI++
ROAH 180709Z 31015G25KT 2000 +TSRA FEW004 BKN008 SCT025CB 26/24 Q1009 RMK 2ST004 5ST008 3CB025 A2980 FBL TS OHD MOV E P/FR
ROAH 180700Z 32014KT 2000 +TSRA FEW004 BKN008 SCT025CB 25/24 Q1009 RMK 2ST004 5ST008 3CB025 A2982 FBL TS OHD MOV E
ROAH 180637Z 28006G16KT 230V330 1000 R36/P1800N +TSRA FEW004 BKN008 SCT025CB 27/25 Q1010 RMK 2ST004 5ST008 3CB025 A2983 MOD TS OHD MOV E
ROAH 180630Z 26005KT 230V310 9999 +TSRA FEW007 BKN009 SCT025CB 27/26 Q1009 RMK 2ST007 5CU009 3CB025 A2982 FBL TS 5KM NW-N MOV E
ROAH 180621Z 27005KT 9999 TSRA FEW007 BKN010 SCT025CB 27/26 Q1009 RMK 1ST007 5CU010 3CB025 A2981 FBL TS 10KM NW MOV E
ROAH 180600Z 27006KT 9999 -SHRA FEW007 BKN010 FEW025CB 28/26 Q1009 RMK 1ST007 5CU010 2CB025 A2981 CB 15KM NW MOV E
ROAH 180530Z 27007KT 9999 FEW007 BKN010 28/26 Q1009 RMK 1ST007 6CU010 A2981
ROAH 180500Z 26007KT 9999 VCSH FEW008 BKN010 27/26 Q1009 RMK 1ST008 6CU010 A2982
ROAH 180441Z 27007KT 9999 -SHRA FEW005 BKN010 FEW030CB 27/26 Q1009 RMK 1ST005 6CU010 2CB030 A2982 CB 15KM NE MOV E
ROAH 180430Z 28008KT 260V340 9999 SHRA FEW005 BKN010 FEW030CB 27/26 Q1009 RMK 2ST005 5CU010 2CB030 A2982 4000NE CB 8KM NE MOV E
ROAH 180424Z 29009KT 260V340 9999 +SHRA FEW005 BKN010 FEW030CB 27/26 Q1009 RMK 2ST005 5CU010 2CB030 A2981 4000N-NE CB 4KM NE MOV E
ROAH 180400Z 27005KT 1000 R18/1500VP1800N +SHRA FEW007 BKN009 SCT030CB 27/26 Q1010 RMK 2ST007 5CU009 3CB030 A2983 CB OHD MOV E RI++
ROAH 180337Z 25005KT 9999 +SHRA FEW010 BKN017 FEW030CB 28/27 Q1010 RMK 2CU010 6CU017 2CB030 A2983 4000W-NW CB 4KM NW MOV E
ROAH 180330Z 25006KT 9999 -SHRA FEW010 BKN017 FEW030CB BKN060 28/27 Q1010 RMK 1CU010 6CU017 1CB030 7SC060 A2983 CB 10KM W MOV E
ROAH 180319Z 24007KT 9999 -SHRA FEW010 SCT015 FEW030TCU BKN060 28/27 Q1010 RMK 2CU010 4CU015 1TCU030 7SC060 A2984 TCU 12KM NE MOV E
ROAH 180308Z 24007KT 3000 +SHRA FEW008 SCT015 FEW030CB BKN060 28/27 Q1010 RMK 1CU008 4CU015 1CB030 7SC060 A2984 CB OHD MOV E
ROAH 180300Z 23006KT 9999 -SHRA FEW008 SCT015 FEW030CB BKN060 28/27 Q1010
ROAH 180237Z 26007KT 9999 -SHRA FEW008 BKN015 FEW030CB 28/26 Q1010 RMK 1CU008 6CU015 1CB030 A2984 CB 12KM E MOV E
ROAH 180215Z 27005KT 210V320 9999 +SHRA FEW008 BKN015 FEW030CB BKN050 27/25 Q1010 RMK 1CU008 5CU015 2CB030 7SC050 A2984 2000SE-SW CB OHD MOV E RI++
ROAH 180210Z 28005KT 9999 R18/0600VP1800U +SHRA FEW008 BKN015 FEW030CB BKN050 27/25 Q1010 RMK 1CU008 5CU015 2CB030 7SC050 A2984 CB 3KM SW MOV E
ROAH 180200Z 26006KT 3000 R18/1000VP1800D +SHRA FEW008 BKN020 FEW030CB BKN050 27/26 Q1010
ROAH 180150Z 23004KT 210V270 4000 +SHRA FEW008 BKN025 FEW030CB BKN050 27/26 Q1010 RMK 1CU008 5CU025 2CB030 7SC050 A2984 CB 5KM W MOV E RI++
ROAH 180130Z 22007KT 9999 -SHRA FEW010 BKN025 BKN050 28/26 Q1010 RMK 1CU010 5CU025 6SC050 A2985
ROAH 180100Z 21008KT 9999 FEW010 SCT013 BKN050 28/26 Q1011 RMK 1CU010 4CU013 6SC050 A2986
ROAH 180030Z 21009KT 9999 FEW010 SCT025 BKN080 28/26 Q1011 RMK 1CU010 3CU025 7AC080 A2986
ROAH 180000Z 21009KT 180V240 9999 FEW010 SCT020 BKN040 28/26 Q1011 RMK 1CU010 3CU020 5SC040 A2986
ROAH 172330Z 21010KT 9999 FEW010 BKN040 27/26 Q1011 RMK 1CU010 6SC040 A2986
ROAH 172300Z 20008KT 9999 FEW009 BKN040 BKN/// 27/26 Q1010
ROAH 172230Z 19010KT 9999 VCSH FEW007 SCT025 BKN040 27/26 Q1010 RMK 1ST007 3CU025 6SC040 A2985
ROAH 172200Z 19010KT 9999 -SHRA FEW008 BKN015 BKN040 27/26 Q1010 RMK 1ST008 5CU015 6SC040 A2985
ROAH 172130Z 19012KT 9999 -SHRA FEW006 SCT009 BKN020 26/25 Q1010 RMK 1ST006 3CU009 5CU020 A2985
ROAH 172100Z 18009KT 9999 -SHRA FEW008 SCT015 BKN020 26/25 Q1010 RMK 1ST008 3CU015 5CU020 A2985
ROAH 172039Z 20010KT 9999 SHRA FEW007 SCT009 BKN015 26/25 Q1010 RMK 1ST007 3CU009 5CU015 A2985
ROAH 171300Z 10005KT 050V140 9999 -SHRA FEW024 BKN050 21/20 Q1013 RMK 1CU024 6SC050 A2993
ROAH 171230Z 10006KT 9999 -SHRA FEW026 BKN070 21/19 Q1013 RMK 1CU026 6AC070 A2992
ROAH 171200Z 10007KT 010V130 9999 VCSH FEW012 BKN060 21/19 Q1013 RMK 1CU012 7SC060 A2992
ROAH 171148Z 08007KT 030V110 9999 -SHRA FEW009 SCT030 BKN040 20/19 Q1013 RMK 1CU009 3CU030 7SC040 A2991
ROAH 171130Z 08008KT 050V120 5000 SHRA FEW016 BKN025 BKN040 20/19 Q1012 RMK 1CU016 5CU025 7SC040 A2991
ROAH 171110Z 11006KT 070V140 6000 SHRA FEW019 BKN030 BKN040 21/19 Q1012 RMK 1CU019 5CU030 7SC040 A2991
ROAH 171100Z 10004KT 010V140 4000 SHRA FEW019 BKN030 BKN040 21/19 Q1012 RMK 1CU019 5CU030 7SC040 A2991
ROAH 171000Z 10005KT 070V130 9999 VCSH FEW020 BKN040 21/19 Q1012 RMK 1CU020 7SC040 A2990
ROAH 170930Z 10007KT 050V130 9999 VCSH FEW020 BKN045 21/19 Q1012 RMK 1CU020 7SC045 A2990
ROAH 170900Z 10007KT 060V120 9999 -RA FEW020 BKN060 21/19 Q1012 RMK 1CU020 7SC060 A2990
ROAH 170830Z 09006KT 050V130 9999 -RA FEW020 BKN050 21/19 Q1012 RMK 1CU020 7SC050 A2990
ROAH 170800Z 10008KT 9999 -SHRA FEW020 SCT035 BKN050 20/19 Q1012 RMK 1CU020 3CU035 7SC050 A2991
ROAH 170730Z 11006KT 070V140 8000 -SHRA FEW020 SCT030 BKN050 20/19 Q1013 RMK 1CU020 3CU030 7SC050 A2992
ROAH 170719Z 12006KT 070V150 6000 SHRA FEW020 SCT030 BKN050 20/18 Q1013 RMK 1CU020 3CU030 7SC050 A2992
ROAH 170700Z 11005KT 060V170 9999 -SHRA FEW020 SCT030 BKN060 21/19 Q1013 RMK 1CU020 3CU030 7SC060 A2992
ROAH 170646Z 08005KT 010V130 7000 -SHRA FEW020 SCT030 BKN060 21/19 Q1013 RMK 1CU020 3CU030 7SC060 A2991
ROAH 170630Z 09006KT 050V120 5000 SHRA FEW020 SCT030 BKN050 21/18 Q1013 RMK 1CU020 4CU030 7SC050 A2991
ROAH 170620Z 10007KT 050V130 6000 SHRA FEW010 SCT030 BKN050 20/18 Q1013 RMK 1CU010 3CU030 7SC050 A2991